Latest Weather Observations for White Cliffs AWS

IDN60801

Issued at 6:05 pm EST Sunday 21 September 2014 (issued every 30 minutes, with the page automatically refreshed every 10 minutes)

About weather observations | Map of weather stations | Latest weather observations for NSW | Other Formats
Station Details ID: 046129 Name: WHITE CLIFFS AWS Lat: -30.85 Lon: 143.07 Height: 158.0 m
Data from the previous 72 hours. | See also: Recent months at White Cliffs AWS
Date/Time
EST
Temp
°C
App
Temp
°C
Dew
Point
Rel
Hum
%
Delta-T
°C
Wind Press
QNH
hPa
Press
MSL
hPa
Rain
since 9 am
mm
Dir
 
Spd
km/h
Gust
km/h
Spd
kts
Gust
kts
21/06:00pm 22.5 15.4 -4.5 16 11.2 SSE 24 32 13 17 1023.8 1023.5 0.0
21/05:30pm 23.0 15.4 -5.9 14 11.7 SE 26 35 14 19 1023.6 1023.3 0.0
21/05:00pm 23.8 16.7 -4.4 15 11.9 SSE 24 35 13 19 1023.3 1023.0 0.0
21/04:30pm 23.7 16.3 -3.6 16 11.7 SE 26 39 14 21 1023.3 1023.0 0.0
21/04:00pm 24.0 15.8 -4.2 15 11.9 S 30 41 16 22 1023.3 1023.0 0.0
21/03:30pm 24.3 17.1 -2.3 17 11.7 SE 26 35 14 19 1023.6 1023.3 0.0
21/03:00pm 23.6 16.0 -2.1 18 11.3 SSE 28 37 15 20 1023.9 1023.6 0.0
21/02:30pm 23.5 16.1 -0.7 20 10.9 SSE 28 39 15 21 1024.2 1023.9 0.0
21/02:00pm 23.3 16.4 0.4 22 10.5 SSE 26 35 14 19 1024.5 1024.2 0.0
21/01:44pm 23.6 16.3 0.0 21 10.8 SSE 28 46 15 25 1024.8 1024.5 0.0
21/01:30pm 23.3 16.7 -0.2 21 10.7 SE 24 37 13 20 1025.0 1024.7 0.0
21/01:00pm 22.6 16.5 0.4 23 10.1 SSE 22 33 12 18 1025.5 1025.2 0.0
21/12:30pm 22.8 16.1 1.2 24 10.1 SSE 26 35 14 19 1026.0 1025.7 0.0
21/12:00pm 21.9 15.8 0.4 24 9.7 SE 22 32 12 17 1026.6 1026.3 0.0
21/11:30am 21.6 15.6 0.8 25 9.5 SE 22 33 12 18 1027.0 1026.7 0.0
21/11:00am 21.2 15.3 2.0 28 8.9 SE 22 30 12 16 1027.2 1026.9 0.0
21/10:30am 20.5 14.7 2.3 30 8.5 SE 22 32 12 17 1027.3 1027.0 0.0
21/10:00am 19.3 12.7 1.8 31 8.0 SSE 26 32 14 17 1027.6 1027.3 0.0
21/09:30am 17.7 12.2 2.1 35 7.1 SE 20 28 11 15 1027.8 1027.5 0.0
21/09:00am 16.4 10.2 2.1 38 6.4 SE 24 30 13 16 1027.6 1027.3 0.0
21/08:30am 15.4 9.5 1.9 40 6.0 ESE 22 33 12 18 1027.5 1027.2 0.0
21/08:00am 14.7 9.2 1.6 41 5.7 SE 20 24 11 13 1027.3 1027.0 0.0
21/07:30am 12.9 7.5 1.0 44 5.1 SSE 19 24 10 13 1027.0 1026.7 0.0
21/07:00am 10.8 5.0 0.0 47 4.4 SSE 20 26 11 14 1026.6 1026.3 0.0
21/06:30am 10.3 4.7 -0.2 48 4.3 SSE 19 24 10 13 1026.5 1026.2 0.0
21/06:00am 10.5 4.8 -0.6 46 4.4 SSE 19 22 10 12 1026.2 1025.9 0.0
21/05:30am 11.3 5.4 -0.5 44 4.8 SSE 20 24 11 13 1025.9 1025.6 0.0
21/05:00am 11.2 5.5 -0.9 43 4.8 SSE 19 20 10 11 1025.6 1025.3 0.0
21/04:30am 11.7 6.0 -1.1 41 5.1 SSE 19 22 10 12 1025.2 1024.9 0.0
21/04:00am 12.4 6.5 -1.1 39 5.4 SSE 20 24 11 13 1024.9 1024.6 0.0
21/03:30am 12.9 6.5 -1.4 37 5.8 SSE 22 26 12 14 1024.8 1024.5 0.0
21/03:00am 14.0 7.6 -1.6 34 6.3 SSE 22 28 12 15 1024.8 1024.5 0.0
21/02:30am 14.2 8.2 -1.4 34 6.4 SSE 20 28 11 15 1025.0 1024.7 0.0
21/02:00am 14.6 7.9 -1.1 34 6.5 SSE 24 28 13 15 1025.0 1024.7 0.0
21/01:30am 14.7 8.0 -1.4 33 6.6 SSE 24 32 13 17 1025.1 1024.8 0.0
21/01:00am 15.2 8.1 -1.4 32 6.8 SSE 26 33 14 18 1025.2 1024.9 0.0
21/12:30am 15.5 9.6 -1.1 32 6.9 SSE 20 26 11 14 1025.3 1025.0 0.0
21/12:00am 14.7 8.7 -1.8 32 6.7 SSE 20 26 11 14 1025.5 1025.2 0.0
 
Date/Time
EST
Temp
°C
App
Temp
°C
Dew
Point
Rel
Hum
%
Delta-T
°C
Wind Press
QNH
hPa
Press
MSL
hPa
Rain
since 9 am
mm
Dir
 
Spd
km/h
Gust
km/h
Spd
kts
Gust
kts
20/11:30pm 14.8 8.7 -2.1 31 6.9 SSE 20 24 11 13 1025.5 1025.2 0.0
20/11:00pm 15.0 8.9 -2.4 30 7.0 SSE 20 24 11 13 1025.3 1025.0 0.0
20/10:30pm 15.3 9.2 -2.6 29 7.2 SSE 20 22 11 12 1025.4 1025.1 0.0
20/10:00pm 15.8 9.6 -3.1 27 7.5 SSE 20 22 11 12 1025.3 1025.0 0.0
20/09:30pm 16.5 10.5 -3.0 26 7.9 SSE 19 22 10 12 1025.1 1024.8 0.0
20/09:00pm 16.6 11.0 -3.0 26 7.9 SSE 17 20 9 11 1024.9 1024.6 0.0
20/08:30pm 17.1 11.5 -3.1 25 8.2 SSE 17 20 9 11 1024.7 1024.4 0.0
20/08:00pm 17.7 12.5 -3.1 24 8.5 SSE 15 19 8 10 1024.6 1024.3 0.0
20/07:30pm 18.3 13.0 -3.8 22 9.0 SSE 15 17 8 9 1024.2 1023.9 0.0
20/07:00pm 19.0 13.3 -3.8 21 9.3 SE 17 20 9 11 1023.9 1023.6 0.0
20/06:30pm 19.5 13.8 -3.4 21 9.5 SSE 17 22 9 12 1023.5 1023.2 0.0
20/06:00pm 20.1 13.5 -3.5 20 9.8 SSE 22 28 12 15 1023.0 1022.7 0.0
20/05:30pm 20.6 14.3 -3.8 19 10.1 SSE 20 28 11 15 1022.7 1022.4 0.0
20/05:00pm 21.2 15.2 -3.3 19 10.3 SSE 19 26 10 14 1022.4 1022.1 0.0
20/04:30pm 21.3 15.0 -4.0 18 10.5 S 20 26 11 14 1022.4 1022.1 0.0
20/04:00pm 21.6 15.4 -4.5 17 10.7 SE 19 30 10 16 1022.5 1022.2 0.0
20/03:30pm 21.0 15.2 -5.0 17 10.6 SSE 17 28 9 15 1022.8 1022.5 0.0
20/03:00pm 22.0 15.7 -4.1 17 10.9 SSE 20 28 11 15 1022.9 1022.6 0.0
20/02:30pm 21.1 16.2 -3.4 19 10.3 ESE 13 20 7 11 1023.3 1023.0 0.0
20/02:00pm 20.6 14.9 -3.8 19 10.1 SE 17 24 9 13 1023.6 1023.3 0.0
20/01:30pm 20.7 14.4 -4.4 18 10.3 SSE 20 32 11 17 1023.8 1023.5 0.0
20/01:00pm 20.1 13.9 -4.9 18 10.0 SE 19 26 10 14 1024.2 1023.9 0.0
20/12:30pm 20.3 14.2 -4.0 19 10.0 SE 19 30 10 16 1024.4 1024.1 0.0
20/12:00pm 19.4 13.3 -3.5 21 9.4 SSE 19 26 10 14 1024.8 1024.5 0.0
20/11:30am 18.7 12.7 -3.4 22 9.1 SE 19 28 10 15 1025.3 1025.0 0.0
20/11:00am 17.9 12.5 -4.1 22 8.8 ESE 15 26 8 14 1025.5 1025.2 0.0
20/10:30am 18.0 12.0 -3.4 23 8.7 E 19 24 10 13 1025.9 1025.6 0.0
20/10:00am 17.9 12.3 -2.9 24 8.5 ESE 17 28 9 15 1026.0 1025.7 0.0
20/09:30am 16.9 11.5 -1.2 29 7.6 ESE 17 20 9 11 1025.9 1025.6 0.0
20/09:00am 15.6 10.6 -1.4 31 7.0 ESE 15 19 8 10 1025.7 1025.4 0.0
20/08:30am 14.4 9.8 -1.2 34 6.4 ESE 13 19 7 10 1025.8 1025.5 0.0
20/08:00am 13.1 8.4 -1.6 36 5.9 E 13 17 7 9 1025.5 1025.2 0.0
20/07:30am 11.7 8.2 -1.1 41 5.1 SE 7 11 4 6 1025.1 1024.8 0.0
20/07:00am 8.6 4.7 -1.8 48 4.0 E 9 11 5 6 1024.9 1024.6 0.0
20/06:30am 7.1 2.7 -2.1 52 3.4 E 11 13 6 7 1024.4 1024.1 0.0
20/06:00am 8.0 3.7 -2.0 49 3.8 ESE 11 15 6 8 1024.1 1023.8 0.0
20/05:30am 8.0 4.0 -2.0 49 3.8 ESE 9 11 5 6 1023.6 1023.3 0.0
20/05:00am 8.2 3.5 -1.9 49 3.8 E 13 15 7 8 1023.2 1022.9 0.0
20/04:30am 7.5 2.7 -2.2 50 3.6 E 13 13 7 7 1022.8 1022.5 0.0
20/04:00am 8.1 3.8 -2.0 49 3.8 E 11 13 6 7 1022.6 1022.3 0.0
20/03:30am 8.4 3.7 -2.0 48 4.0 E 13 15 7 8 1022.5 1022.2 0.0
20/03:00am 9.1 4.4 -1.9 46 4.2 E 13 15 7 8 1022.6 1022.3 0.0
20/02:30am 8.9 4.5 -2.4 45 4.3 E 11 13 6 7 1022.8 1022.5 0.0
20/02:00am 9.9 5.5 -2.7 41 4.8 E 11 13 6 7 1023.2 1022.9 0.0
20/01:30am 11.8 6.9 -3.1 35 5.7 E 13 17 7 9 1023.2 1022.9 0.0
20/01:00am 13.8 7.7 -2.2 33 6.4 SE 20 26 11 14 1023.2 1022.9 0.0
20/12:30am 13.9 7.8 -2.5 32 6.5 SE 20 26 11 14 1023.3 1023.0 0.0
20/12:00am 13.9 8.4 -2.1 33 6.4 SSE 17 20 9 11 1023.3 1023.0 0.0
 
Date/Time
EST
Temp
°C
App
Temp
°C
Dew
Point
Rel
Hum
%
Delta-T
°C
Wind Press
QNH
hPa
Press
MSL
hPa
Rain
since 9 am
mm
Dir
 
Spd
km/h
Gust
km/h
Spd
kts
Gust
kts
19/11:30pm 13.9 8.0 -2.1 33 6.4 SSE 19 22 10 12 1023.3 1023.0 0.0
19/11:00pm 14.3 8.3 -1.7 33 6.5 SSE 20 24 11 13 1023.4 1023.1 0.0
19/10:30pm 14.4 8.6 -1.6 33 6.5 SSE 19 24 10 13 1023.6 1023.3 0.0
19/10:00pm 14.4 9.0 -1.6 33 6.5 SSE 17 20 9 11 1023.5 1023.2 0.0
19/09:30pm 14.6 9.2 -1.5 33 6.6 SSE 17 19 9 10 1023.7 1023.4 0.0
19/09:00pm 15.0 9.6 -1.5 32 6.8 SSE 17 20 9 11 1023.6 1023.3 0.0
19/08:30pm 15.3 10.3 -1.3 32 6.9 SSE 15 19 8 10 1023.5 1023.2 0.0
19/08:00pm 15.7 10.7 -1.4 31 7.1 SSE 15 17 8 9 1023.2 1022.9 0.0
19/07:30pm 16.1 11.4 -1.5 30 7.3 SSE 13 15 7 8 1022.7 1022.4 0.0
19/07:00pm 17.1 12.4 -1.5 28 7.8 SSE 13 17 7 9 1022.4 1022.1 0.0
19/06:30pm 17.9 12.9 -1.3 27 8.2 S 15 19 8 10 1022.1 1021.8 0.0
19/06:00pm 18.5 13.8 -1.9 25 8.6 S 13 19 7 10 1021.8 1021.5 0.0
19/05:30pm 19.5 14.4 -1.6 24 9.1 S 15 20 8 11 1021.6 1021.3 0.0
19/05:00pm 19.5 15.2 -1.6 24 9.0 SSW 11 26 6 14 1021.4 1021.1 0.0
19/04:30pm 19.8 13.8 -1.9 23 9.3 S 20 28 11 15 1021.3 1021.0 0.0
19/04:00pm 19.6 15.3 -1.5 24 9.1 SE 11 19 6 10 1021.1 1020.8 0.0
19/03:30pm 20.2 15.6 -1.0 24 9.3 S 13 26 7 14 1021.4 1021.1 0.0
19/03:00pm 19.8 15.2 -1.3 24 9.1 S 13 20 7 11 1021.4 1021.1 0.0
19/02:30pm 19.7 15.4 -1.4 24 9.1 S 11 30 6 16 1021.9 1021.6 0.0
19/02:00pm 19.4 14.8 -1.1 25 8.8 WSW 13 19 7 10 1022.0 1021.7 0.0
19/01:30pm 18.4 14.6 -0.9 27 8.3 S 9 15 5 8 1022.4 1022.1 0.0
19/01:00pm 19.0 13.7 -0.9 26 8.6 S 17 28 9 15 1022.8 1022.5 0.0
19/12:30pm 18.5 13.6 -0.8 27 8.3 S 15 24 8 13 1023.0 1022.7 0.0
19/12:00pm 18.4 15.0 -0.4 28 8.2 S 7 17 4 9 1023.0 1022.7 0.0
19/11:30am 17.4 13.6 -0.8 29 7.8 SSE 9 19 5 10 1023.5 1023.2 0.0
19/11:00am 17.8 13.7 0.0 30 7.7 ESE 11 17 6 9 1023.9 1023.6 0.0
19/10:30am 17.1 13.3 -0.6 30 7.6 E 9 17 5 9 1024.1 1023.8 0.0
19/10:00am 16.2 11.7 -0.5 32 7.1 ENE 13 19 7 10 1024.3 1024.0 0.0
19/09:30am 15.8 10.3 0.4 35 6.7 ENE 19 24 10 13 1024.1 1023.8 0.0
19/09:00am 15.4 10.2 0.0 35 6.5 ENE 17 24 9 13 1024.3 1024.0 0.0
19/08:30am 13.0 8.1 -0.3 40 5.5 E 15 20 8 11 1024.3 1024.0 0.0
19/08:00am 12.5 7.7 0.0 42 5.2 E 15 20 8 11 1024.0 1023.7 0.0
19/07:30am 12.1 8.0 -0.4 42 5.1 SE 11 15 6 8 1024.0 1023.7 0.0
19/07:00am 11.9 7.4 -0.3 43 5.0 SE 13 15 7 8 1023.6 1023.3 0.0
19/06:30am 11.7 7.6 -0.1 44 4.9 ESE 11 15 6 8 1023.2 1022.9 0.0
19/06:00am 11.7 7.2 -0.4 43 4.9 ESE 13 17 7 9 1022.5 1022.2 0.0
19/05:30am 12.0 7.5 -0.5 42 5.1 ESE 13 15 7 8 1022.4 1022.1 0.0
19/05:00am 12.3 7.0 -0.9 40 5.3 ESE 17 20 9 11 1022.1 1021.8 0.0
19/04:30am 12.1 6.4 -0.7 41 5.2 SSE 19 22 10 12 1022.0 1021.7 0.0
19/04:00am 11.8 6.5 -0.4 43 5.0 S 17 20 9 11 1021.9 1021.6 0.0
19/03:30am 12.1 6.8 -0.4 42 5.1 S 17 20 9 11 1021.9 1021.6 0.0
19/03:00am 12.0 6.8 -0.2 43 5.0 S 17 20 9 11 1022.2 1021.9 0.0
19/02:30am 11.9 6.7 0.1 44 4.9 S 17 20 9 11 1022.6 1022.3 0.0
19/02:00am 12.1 7.3 -0.1 43 5.0 S 15 19 8 10 1022.8 1022.5 0.0
19/01:30am 12.3 7.4 -0.2 42 5.2 S 15 19 8 10 1023.0 1022.7 0.0
19/01:00am 12.2 7.7 0.0 43 5.0 S 13 17 7 9 1022.9 1022.6 0.0
19/12:30am 12.1 7.3 0.5 45 4.9 S 15 19 8 10 1023.3 1023.0 0.0
19/12:00am 11.5 7.2 0.9 48 4.4 S 13 15 7 8 1023.5 1023.2 0.0
 
Date/Time
EST
Temp
°C
App
Temp
°C
Dew
Point
Rel
Hum
%
Delta-T
°C
Wind Press
QNH
hPa
Press
MSL
hPa
Rain
since 9 am
mm
Dir
 
Spd
km/h
Gust
km/h
Spd
kts
Gust
kts
18/11:30pm 12.1 7.4 0.8 46 4.8 S 15 15 8 8 1023.7 1023.4 0.0
18/11:00pm 12.5 8.2 0.9 45 4.9 S 13 15 7 8 1023.8 1023.5 0.0
18/10:30pm 13.2 8.1 0.9 43 5.3 S 17 20 9 11 1023.8 1023.5 0.0
18/10:00pm 13.7 9.0 1.0 42 5.4 SSE 15 20 8 11 1023.7 1023.4 0.0
18/09:30pm 14.4 9.3 1.0 40 5.8 SSE 17 20 9 11 1023.6 1023.3 0.0
18/09:00pm 14.7 10.4 0.9 39 5.9 SSE 13 15 7 8 1023.3 1023.0 0.0
18/08:30pm 15.4 10.3 0.8 37 6.3 SSE 17 20 9 11 1022.7 1022.4 0.0
18/08:00pm 15.9 10.8 0.9 36 6.5 S 17 19 9 10 1022.6 1022.3 0.0
18/07:30pm 16.5 11.8 0.6 34 7.0 S 15 19 8 10 1022.1 1021.8 0.0
18/07:00pm 17.4 11.9 0.6 32 7.4 S 19 26 10 14 1021.7 1021.4 0.0
18/06:30pm 18.1 14.1 0.7 31 7.7 S 11 17 6 9 1021.7 1021.4 0.0

Other Formats:

Comma delimited format used in spreadsheet applications
http://www.bom.gov.au/fwo/IDN60801/IDN60801.95699.axf

JavaScript Object Notation format (JSON) in row-major order
http://www.bom.gov.au/fwo/IDN60801/IDN60801.95699.json